createdAt,value
2019-05-10T00:00:12.719Z,20.37
2019-05-10T00:03:00.332Z,19.30
2019-05-10T00:05:48.255Z,18.93
2019-05-10T00:08:35.728Z,20.10
2019-05-10T00:11:34.657Z,20.13
2019-05-10T00:14:33.987Z,21.63
2019-05-10T00:17:17.434Z,20.77
2019-05-10T00:19:46.720Z,24.27
2019-05-10T00:22:16.144Z,22.77
2019-05-10T00:25:00.737Z,24.73
2019-05-10T00:27:16.812Z,21.73
2019-05-10T00:29:46.297Z,22.73
2019-05-10T00:32:15.679Z,20.90
2019-05-10T00:34:45.057Z,19.40
2019-05-10T00:37:14.513Z,21.30
2019-05-10T00:39:44.336Z,20.17
2019-05-10T00:42:13.691Z,19.70
2019-05-10T00:44:42.992Z,19.80
2019-05-10T00:47:12.415Z,19.13
2019-05-10T00:49:41.768Z,19.53
2019-05-10T00:52:11.179Z,18.17
2019-05-10T00:54:40.608Z,18.10
2019-05-10T00:57:09.986Z,18.97
2019-05-10T00:59:39.258Z,17.90
2019-05-10T01:02:08.603Z,17.73
2019-05-10T01:04:38.006Z,17.13
2019-05-10T01:07:07.504Z,18.67
2019-05-10T01:09:36.976Z,18.73
2019-05-10T01:12:06.385Z,18.77
2019-05-10T01:14:35.807Z,18.83
2019-05-10T01:17:05.330Z,17.93
2019-05-10T01:19:34.780Z,18.83
2019-05-10T01:22:04.142Z,18.87
2019-05-10T01:24:33.712Z,18.27
2019-05-10T01:27:03.199Z,16.93
2019-05-10T01:29:32.582Z,18.93
2019-05-10T01:32:02.088Z,18.00
2019-05-10T01:34:31.600Z,18.07
2019-05-10T01:37:01.214Z,18.60
2019-05-10T01:39:30.591Z,19.23
2019-05-10T01:41:59.933Z,20.60
2019-05-10T01:44:29.315Z,21.33
2019-05-10T01:46:58.645Z,19.47
2019-05-10T01:49:27.980Z,20.03
2019-05-10T01:51:57.324Z,21.47
2019-05-10T01:54:26.659Z,19.70
2019-05-10T01:56:56.120Z,21.30
2019-05-10T01:59:25.407Z,25.13
2019-05-10T02:01:54.823Z,23.57
2019-05-10T02:04:24.078Z,25.17
2019-05-10T02:06:53.467Z,23.80
2019-05-10T02:09:23.598Z,22.30
2019-05-10T02:11:53.280Z,21.27
2019-05-10T02:14:22.709Z,22.93
2019-05-10T02:16:52.027Z,23.13
2019-05-10T02:19:21.420Z,23.70
2019-05-10T02:21:50.797Z,23.43
2019-05-10T02:24:20.273Z,24.63
2019-05-10T02:26:49.636Z,25.83
2019-05-10T02:29:19.131Z,22.83
2019-05-10T02:31:48.400Z,22.70
2019-05-10T02:34:17.784Z,22.93
2019-05-10T02:36:47.168Z,21.87
2019-05-10T02:39:16.501Z,23.10
2019-05-10T02:41:45.812Z,23.13
2019-05-10T02:44:15.289Z,22.73
2019-05-10T02:46:44.696Z,21.20
2019-05-10T02:49:14.067Z,22.03
2019-05-10T02:51:43.318Z,23.97
2019-05-10T02:54:12.599Z,22.60
2019-05-10T02:56:42.998Z,23.00
2019-05-10T02:59:14.170Z,22.57
2019-05-10T03:01:46.322Z,22.17
2019-05-10T03:04:15.789Z,21.50
2019-05-10T03:06:45.507Z,23.77
2019-05-10T03:09:14.871Z,24.63
2019-05-10T03:11:48.183Z,20.97
2019-05-10T03:14:19.367Z,27.23
2019-05-10T03:16:52.317Z,22.23
2019-05-10T03:19:22.346Z,22.53
2019-05-10T03:22:06.110Z,24.83
2019-05-10T03:24:35.640Z,25.83
2019-05-10T03:27:05.085Z,28.27
2019-05-10T03:29:34.561Z,27.73
2019-05-10T03:32:03.993Z,26.17
2019-05-10T03:34:33.501Z,26.20
2019-05-10T03:37:03.609Z,30.53
2019-05-10T03:39:32.969Z,27.37
2019-05-10T03:42:02.267Z,25.63
2019-05-10T03:44:31.592Z,25.10
2019-05-10T03:47:01.014Z,24.77
2019-05-10T03:49:30.287Z,26.33
2019-05-10T03:51:59.603Z,25.00
2019-05-10T03:54:28.970Z,24.40
2019-05-10T03:57:12.130Z,26.00
2019-05-10T03:59:29.339Z,27.03
2019-05-10T04:01:58.658Z,24.47
2019-05-10T04:04:28.047Z,23.73
2019-05-10T04:06:57.512Z,22.40
2019-05-10T04:09:26.832Z,22.33
2019-05-10T04:11:56.201Z,22.23
2019-05-10T04:14:25.753Z,22.80
2019-05-10T04:16:55.135Z,22.80
2019-05-10T04:19:24.571Z,24.13
2019-05-10T04:21:53.924Z,23.13
2019-05-10T04:24:23.245Z,21.87
2019-05-10T04:26:52.535Z,22.20
2019-05-10T04:29:22.304Z,23.97
2019-05-10T04:31:51.614Z,22.63
2019-05-10T04:34:20.980Z,23.17
2019-05-10T04:36:50.418Z,22.90
2019-05-10T04:39:21.051Z,20.87
2019-05-10T04:41:53.847Z,22.30
2019-05-10T04:44:23.125Z,22.53
2019-05-10T04:46:52.509Z,22.03
2019-05-10T04:49:22.058Z,21.77
2019-05-10T04:51:51.572Z,21.60
2019-05-10T04:54:20.985Z,21.97
2019-05-10T04:56:50.403Z,20.20
2019-05-10T04:59:19.669Z,19.10
2019-05-10T05:01:49.018Z,19.17
2019-05-10T05:04:27.879Z,17.97
2019-05-10T05:06:58.998Z,17.50
2019-05-10T05:09:39.592Z,19.90
2019-05-10T05:12:13.673Z,17.90
2019-05-10T05:14:42.938Z,16.73
2019-05-10T05:17:16.574Z,18.13
2019-05-10T05:19:50.443Z,18.80
2019-05-10T05:22:52.203Z,18.10
2019-05-10T05:25:26.297Z,18.03
2019-05-10T05:28:07.300Z,19.10
2019-05-10T05:30:28.235Z,18.90
2019-05-10T05:32:57.599Z,19.20
2019-05-10T05:35:26.886Z,18.90
2019-05-10T05:37:56.229Z,20.00
2019-05-10T05:40:27.946Z,19.33
2019-05-10T05:42:57.494Z,20.10
2019-05-10T05:45:28.238Z,19.40
2019-05-10T05:47:57.876Z,19.30
2019-05-10T05:50:27.102Z,19.57
2019-05-10T05:52:56.597Z,20.77
2019-05-10T05:55:30.535Z,21.77
2019-05-10T05:57:59.133Z,24.33
2019-05-10T06:00:27.922Z,22.43
2019-05-10T06:02:57.207Z,21.07
2019-05-10T06:05:33.991Z,21.43
2019-05-10T06:07:57.500Z,19.93
2019-05-10T06:10:26.892Z,19.93
2019-05-10T06:12:56.290Z,18.93
2019-05-10T06:15:29.253Z,18.80
2019-05-10T06:17:57.660Z,19.57
2019-05-10T06:20:27.128Z,21.20
2019-05-10T06:23:06.430Z,20.17
2019-05-10T06:25:38.714Z,19.20
2019-05-10T06:27:58.568Z,19.60
2019-05-10T06:30:27.964Z,19.40
2019-05-10T06:33:00.775Z,21.80
2019-05-10T06:35:28.316Z,19.30
2019-05-10T06:37:57.902Z,17.20
2019-05-10T06:40:35.778Z,13.53
2019-05-10T06:42:58.635Z,15.30
2019-05-10T06:45:29.458Z,13.87
2019-05-10T06:47:58.671Z,14.17
2019-05-10T06:50:29.840Z,12.83
2019-05-10T06:53:00.507Z,13.33
2019-05-10T06:55:30.300Z,13.37
2019-05-10T06:58:00.921Z,11.70
2019-05-10T07:00:30.265Z,12.50
2019-05-10T07:02:59.878Z,10.90
2019-05-10T07:05:29.168Z,10.93
2019-05-10T07:08:12.860Z,10.33
2019-05-10T07:10:33.763Z,10.40
2019-05-10T07:13:03.421Z,9.77
2019-05-10T07:15:35.957Z,8.60
2019-05-10T07:18:03.456Z,7.93
2019-05-10T07:20:32.825Z,8.07
2019-05-10T07:23:06.285Z,7.33
2019-05-10T07:25:37.754Z,7.27
2019-05-10T07:28:09.324Z,6.90
2019-05-10T07:30:36.453Z,7.20
2019-05-10T07:33:05.964Z,7.37
2019-05-10T07:35:36.840Z,7.40
2019-05-10T07:38:06.507Z,6.40
2019-05-10T07:40:35.917Z,6.77
2019-05-10T07:43:05.341Z,5.60
2019-05-10T07:45:34.943Z,5.20
2019-05-10T07:48:08.247Z,4.20
2019-05-10T07:50:35.362Z,3.73
2019-05-10T07:53:06.961Z,3.23
2019-05-10T07:55:36.367Z,3.23
2019-05-10T07:58:07.112Z,2.80
2019-05-10T08:00:38.145Z,3.13
2019-05-10T08:03:15.999Z,3.20
2019-05-10T08:05:40.510Z,2.67
2019-05-10T08:08:09.910Z,2.90
2019-05-10T08:10:39.478Z,3.00
2019-05-10T08:13:15.431Z,3.17
2019-05-10T08:15:42.901Z,3.90
2019-05-10T08:18:15.304Z,3.53
2019-05-10T08:20:50.449Z,3.30
2019-05-10T08:23:17.951Z,3.50
2019-05-10T08:25:47.214Z,3.50
2019-05-10T08:28:17.117Z,3.90
2019-05-10T08:30:53.595Z,4.30
2019-05-10T08:33:18.483Z,3.70
2019-05-10T08:35:52.485Z,4.40
2019-05-10T08:38:19.074Z,4.03
2019-05-10T08:40:48.869Z,3.67
2019-05-10T08:43:18.305Z,4.13
2019-05-10T08:45:49.447Z,4.63
2019-05-10T08:48:18.629Z,5.00
2019-05-10T08:50:54.292Z,4.80
2019-05-10T08:53:22.939Z,5.67
2019-05-10T08:55:52.437Z,5.23
2019-05-10T08:58:31.702Z,5.30
2019-05-10T09:01:12.056Z,5.43
2019-05-10T09:03:28.420Z,5.60
2019-05-10T09:06:05.229Z,4.97
2019-05-10T09:08:31.709Z,5.10
2019-05-10T09:11:04.127Z,4.33
2019-05-10T09:13:37.204Z,4.57
2019-05-10T09:16:02.538Z,4.57
2019-05-10T09:18:33.094Z,4.20
2019-05-10T09:21:08.615Z,4.53
2019-05-10T09:23:33.689Z,4.00
2019-05-10T09:26:10.602Z,3.67
2019-05-10T09:28:34.024Z,3.97
2019-05-10T09:31:17.361Z,4.20
2019-05-10T09:33:34.270Z,4.93
2019-05-10T09:36:03.582Z,4.50
2019-05-10T09:38:37.129Z,3.80
2019-05-10T09:41:04.039Z,3.57
2019-05-10T09:43:33.406Z,3.50
2019-05-10T09:46:02.966Z,3.23
2019-05-10T09:48:33.319Z,3.23
2019-05-10T09:51:04.313Z,2.90
2019-05-10T09:53:34.012Z,2.97
2019-05-10T09:56:03.496Z,2.73
2019-05-10T09:58:32.914Z,2.50
2019-05-10T10:01:13.724Z,2.30
2019-05-10T10:03:39.783Z,2.60
2019-05-10T10:06:07.707Z,2.20
2019-05-10T10:08:35.425Z,2.20
2019-05-10T10:11:14.073Z,2.13
2019-05-10T10:13:43.338Z,2.17
2019-05-10T10:16:14.363Z,2.00
2019-05-10T10:18:40.703Z,2.07
2019-05-10T10:21:10.991Z,1.80
2019-05-10T10:23:41.029Z,2.40
2019-05-10T10:26:12.680Z,2.30
2019-05-10T10:28:41.512Z,2.00
2019-05-10T10:31:25.074Z,2.30
2019-05-10T10:33:43.080Z,2.17
2019-05-10T10:36:12.620Z,2.10
2019-05-10T10:38:45.438Z,2.03
2019-05-10T10:41:19.178Z,2.37
2019-05-10T10:43:44.393Z,2.30
2019-05-10T10:46:16.678Z,2.40
2019-05-10T10:48:49.270Z,2.53
2019-05-10T10:51:18.047Z,2.33
2019-05-10T10:53:47.035Z,1.70
2019-05-10T10:56:17.622Z,2.03
2019-05-10T10:58:49.563Z,1.93
2019-05-10T11:01:24.684Z,2.10
2019-05-10T11:03:49.251Z,2.17
2019-05-10T11:06:18.729Z,1.93
2019-05-10T11:08:48.119Z,2.07
2019-05-10T11:11:17.523Z,2.10
2019-05-10T11:13:57.332Z,2.00
2019-05-10T11:16:17.828Z,2.50
2019-05-10T11:18:47.113Z,2.10
2019-05-10T11:21:16.431Z,2.00
2019-05-10T11:23:45.704Z,2.20
2019-05-10T11:26:14.992Z,1.90
2019-05-10T11:28:44.462Z,2.07
2019-05-10T11:31:14.011Z,2.10
2019-05-10T11:33:47.552Z,1.60
2019-05-10T11:36:14.458Z,1.80
2019-05-10T11:38:47.026Z,1.80
2019-05-10T11:41:21.156Z,1.90
2019-05-10T11:43:45.852Z,2.13
2019-05-10T11:46:15.263Z,2.20
2019-05-10T11:48:45.060Z,2.20
2019-05-10T11:51:17.429Z,2.20
2019-05-10T11:53:48.835Z,2.30
2019-05-10T11:56:24.003Z,2.77
2019-05-10T11:58:55.032Z,2.33
2019-05-10T12:01:22.217Z,2.30
2019-05-10T12:03:51.350Z,2.17
2019-05-10T12:06:21.396Z,1.60
2019-05-10T12:08:56.983Z,1.97
2019-05-10T12:11:33.037Z,1.90
2019-05-10T12:13:57.434Z,1.93
2019-05-10T12:16:27.505Z,1.90
2019-05-10T12:19:15.103Z,1.87
2019-05-10T12:21:28.354Z,1.90
2019-05-10T12:24:10.320Z,1.53
2019-05-10T12:29:11.560Z,1.30
2019-05-10T12:31:31.191Z,1.40
2019-05-10T12:34:08.880Z,1.53
2019-05-10T12:36:31.713Z,1.43
2019-05-10T12:39:01.754Z,1.10
2019-05-10T12:41:31.687Z,1.50
2019-05-10T12:44:05.751Z,1.47
2019-05-10T12:46:32.140Z,1.70
2019-05-10T12:49:04.842Z,1.30
2019-05-10T12:51:32.873Z,1.37
2019-05-10T12:54:02.356Z,1.40
2019-05-10T12:56:34.858Z,1.20
2019-05-10T12:59:02.773Z,1.40
2019-05-10T13:01:33.207Z,1.33
2019-05-10T13:04:13.961Z,1.40
2019-05-10T13:06:36.418Z,1.20
2019-05-10T13:09:07.584Z,1.10
2019-05-10T13:11:36.976Z,1.10
2019-05-10T13:14:09.532Z,1.40
2019-05-10T13:16:37.416Z,1.53
2019-05-10T13:19:07.098Z,1.87
2019-05-10T13:21:36.666Z,2.70
2019-05-10T13:24:06.138Z,2.10
2019-05-10T13:26:35.578Z,2.33
2019-05-10T13:29:07.895Z,1.90
2019-05-10T13:31:41.748Z,1.80
2019-05-10T13:34:08.021Z,1.40
2019-05-10T13:36:38.945Z,2.37
2019-05-10T13:39:08.690Z,1.67
2019-05-10T13:41:38.206Z,1.63
2019-05-10T13:44:07.643Z,1.40
2019-05-10T13:46:37.032Z,1.40
2019-05-10T13:49:09.219Z,1.30
2019-05-10T13:51:38.506Z,1.10
2019-05-10T13:54:07.978Z,1.30
2019-05-10T13:56:37.455Z,1.40
2019-05-10T13:59:15.514Z,1.50
2019-05-10T14:01:37.936Z,1.93
2019-05-10T14:04:07.292Z,2.40
2019-05-10T14:06:36.699Z,1.80
2019-05-10T14:09:07.863Z,1.90
2019-05-10T14:11:40.510Z,2.37
2019-05-10T14:14:14.432Z,2.10
2019-05-10T14:16:41.854Z,2.20
2019-05-10T14:19:16.042Z,1.93
2019-05-10T14:21:42.398Z,1.73
2019-05-10T14:24:15.314Z,2.67
2019-05-10T14:26:43.155Z,2.70
2019-05-10T14:29:12.658Z,2.50
2019-05-10T14:31:41.917Z,2.40
2019-05-10T14:34:15.577Z,2.40
2019-05-10T14:36:43.565Z,2.60
2019-05-10T14:39:13.066Z,2.53
2019-05-10T14:41:45.253Z,2.60
2019-05-10T14:44:13.473Z,2.40
2019-05-10T14:46:43.101Z,2.63
2019-05-10T14:49:12.554Z,2.07
2019-05-10T14:51:57.861Z,2.40
2019-05-10T14:54:12.947Z,2.90
2019-05-10T14:56:42.334Z,2.50
2019-05-10T14:59:11.943Z,2.53
2019-05-10T15:01:43.094Z,2.80
2019-05-10T15:04:17.897Z,2.30
2019-05-10T15:06:44.009Z,1.80
2019-05-10T15:09:21.745Z,1.80
2019-05-10T15:11:44.570Z,2.17
2019-05-10T15:14:13.973Z,1.80
2019-05-10T15:16:43.329Z,2.03
2019-05-10T15:19:12.616Z,2.83
2019-05-10T15:21:42.039Z,2.70
2019-05-10T15:24:11.521Z,2.53
2019-05-10T15:26:44.045Z,2.73
2019-05-10T15:29:22.355Z,2.57
2019-05-10T15:31:45.709Z,2.63
2019-05-10T15:34:15.175Z,2.10
2019-05-10T15:36:44.551Z,2.10
2019-05-10T15:39:13.844Z,1.70
2019-05-10T15:41:43.933Z,2.00
2019-05-10T15:44:13.302Z,2.00
2019-05-10T15:46:42.714Z,2.10
2019-05-10T15:49:13.460Z,1.90
2019-05-10T15:51:48.950Z,2.00
2019-05-10T15:54:16.619Z,2.03
2019-05-10T15:56:46.043Z,1.70
2019-05-10T15:59:19.277Z,1.80
2019-05-10T16:01:46.790Z,1.60
2019-05-10T16:04:16.343Z,1.60
2019-05-10T16:06:47.219Z,1.97
2019-05-10T16:09:18.959Z,2.00
2019-05-10T16:11:48.071Z,1.90
2019-05-10T16:14:17.593Z,2.07
2019-05-10T16:16:46.961Z,2.03
2019-05-10T16:19:18.692Z,2.03
2019-05-10T16:21:52.063Z,1.73
2019-05-10T16:24:25.189Z,1.93
2019-05-10T16:26:49.632Z,1.50
2019-05-10T16:29:19.048Z,1.70
2019-05-10T16:31:48.519Z,1.90
2019-05-10T16:34:17.973Z,2.10
2019-05-10T16:36:47.618Z,1.97
2019-05-10T16:39:17.060Z,2.20
2019-05-10T16:41:46.534Z,2.43
2019-05-10T16:44:15.805Z,2.50
2019-05-10T16:46:45.103Z,2.70
2019-05-10T16:49:15.576Z,3.00
2019-05-10T16:51:47.560Z,3.43
2019-05-10T16:54:24.233Z,3.40
2019-05-10T16:56:51.768Z,3.67
2019-05-10T16:59:18.427Z,3.80
2019-05-10T17:01:47.760Z,3.90
2019-05-10T17:04:17.211Z,5.67
2019-05-10T17:06:46.598Z,7.23
2019-05-10T17:09:18.106Z,7.20
2019-05-10T17:11:48.627Z,7.67
2019-05-10T17:14:19.672Z,7.23
2019-05-10T17:16:58.415Z,7.37
2019-05-10T17:19:27.814Z,7.17
2019-05-10T17:21:54.353Z,7.93
2019-05-10T17:24:25.415Z,7.90
2019-05-10T17:26:54.752Z,7.37
2019-05-10T17:29:24.273Z,6.10
2019-05-10T17:31:53.717Z,5.30
2019-05-10T17:34:29.056Z,5.20
2019-05-10T17:36:57.942Z,4.80
2019-05-10T17:39:32.341Z,5.23
2019-05-10T17:42:03.110Z,5.83
2019-05-10T17:44:32.767Z,5.20
2019-05-10T17:47:02.121Z,8.90
2019-05-10T17:49:31.554Z,13.17
2019-05-10T17:52:01.019Z,11.83
2019-05-10T17:54:33.855Z,11.70
2019-05-10T17:57:01.317Z,9.43
2019-05-10T17:59:31.059Z,8.97
2019-05-10T18:02:00.622Z,7.50
2019-05-10T18:04:31.408Z,6.47
2019-05-10T18:07:00.758Z,6.80
2019-05-10T18:09:30.121Z,8.57
2019-05-10T18:11:59.562Z,8.73
2019-05-10T18:14:29.729Z,8.50
2019-05-10T18:16:59.206Z,9.23
2019-05-10T18:19:28.961Z,10.37
2019-05-10T18:22:00.841Z,12.03
2019-05-10T18:24:30.283Z,11.70
2019-05-10T18:27:00.705Z,12.60
2019-05-10T18:29:30.135Z,11.77
2019-05-10T18:31:59.354Z,12.90
2019-05-10T18:34:33.063Z,12.30
2019-05-10T18:36:59.808Z,12.77
2019-05-10T18:39:29.509Z,12.00
2019-05-10T18:41:58.822Z,14.07
2019-05-10T18:44:28.326Z,13.17
2019-05-10T18:46:57.711Z,15.43
2019-05-10T18:49:27.353Z,15.97
2019-05-10T18:52:03.908Z,15.47
2019-05-10T18:54:27.886Z,15.13
2019-05-10T18:56:57.494Z,15.00
2019-05-10T18:59:26.951Z,16.03
2019-05-10T19:01:56.415Z,15.60
2019-05-10T19:04:26.929Z,16.67
2019-05-10T19:07:09.278Z,16.67
2019-05-10T19:09:28.361Z,15.80
2019-05-10T19:11:57.916Z,15.23
2019-05-10T19:14:29.539Z,14.90
2019-05-10T19:16:58.433Z,14.23
2019-05-10T19:19:35.352Z,12.93
2019-05-10T19:22:03.006Z,13.23
2019-05-10T19:24:32.236Z,14.33
2019-05-10T19:27:07.097Z,16.07
2019-05-10T19:29:32.639Z,16.90
2019-05-10T19:32:02.117Z,17.37
2019-05-10T19:34:31.594Z,17.50
2019-05-10T19:37:00.940Z,17.60
2019-05-10T19:39:31.374Z,17.70
2019-05-10T19:42:04.021Z,16.30
2019-05-10T19:44:34.555Z,17.80
2019-05-10T19:47:03.237Z,17.90
2019-05-10T19:49:32.616Z,20.10
2019-05-10T19:52:01.968Z,19.73
2019-05-10T19:54:31.183Z,19.10
2019-05-10T19:57:00.651Z,17.87
2019-05-10T19:59:30.075Z,18.20
2019-05-10T20:01:59.475Z,16.80
2019-05-10T20:04:28.875Z,15.63
2019-05-10T20:06:58.295Z,15.80
2019-05-10T20:09:28.152Z,15.87
2019-05-10T20:11:57.554Z,16.27
2019-05-10T20:14:26.898Z,16.50
2019-05-10T20:16:56.354Z,17.03
2019-05-10T20:19:27.848Z,17.70
2019-05-10T20:21:57.297Z,17.97
2019-05-10T20:24:26.822Z,17.53
2019-05-10T20:26:56.341Z,17.97
2019-05-10T20:29:26.017Z,18.83
2019-05-10T20:31:55.742Z,20.53
2019-05-10T20:34:25.289Z,21.50
2019-05-10T20:36:54.863Z,22.40
2019-05-10T20:39:24.474Z,22.07
2019-05-10T20:41:54.669Z,20.47
2019-05-10T20:44:28.143Z,21.00
2019-05-10T20:46:57.368Z,21.10
2019-05-10T20:49:26.915Z,20.57
2019-05-10T20:51:56.494Z,21.80
2019-05-10T20:54:25.926Z,21.80
2019-05-10T20:56:55.475Z,21.60
2019-05-10T20:59:24.831Z,20.90
2019-05-10T21:01:54.292Z,21.97
2019-05-10T21:04:24.726Z,21.50
2019-05-10T21:06:54.402Z,22.73
2019-05-10T21:09:23.836Z,22.03
2019-05-10T21:11:53.325Z,22.00
2019-05-10T21:14:25.382Z,21.47
2019-05-10T21:16:54.847Z,23.27
2019-05-10T21:19:24.357Z,23.97
2019-05-10T21:21:53.772Z,24.13
2019-05-10T21:24:24.239Z,24.33
2019-05-10T21:26:54.051Z,25.03
2019-05-10T21:29:23.453Z,24.93
2019-05-10T21:31:52.944Z,24.90
2019-05-10T21:34:22.505Z,24.53
2019-05-10T21:36:51.988Z,25.13
2019-05-10T21:39:21.370Z,25.00
2019-05-10T21:41:51.005Z,26.00
2019-05-10T21:44:20.584Z,27.07
2019-05-10T21:46:53.413Z,29.33
2019-05-10T21:49:21.149Z,27.33
2019-05-10T21:51:50.567Z,30.23
2019-05-10T21:54:20.131Z,29.93
2019-05-10T21:56:49.521Z,28.63
2019-05-10T21:59:18.883Z,28.07
2019-05-10T22:01:48.377Z,29.90
2019-05-10T22:04:18.062Z,29.90
2019-05-10T22:06:47.607Z,28.97
2019-05-10T22:09:17.297Z,29.17
2019-05-10T22:11:46.674Z,30.10
2019-05-10T22:14:16.163Z,30.47
2019-05-10T22:16:47.508Z,29.30
2019-05-10T22:19:16.943Z,27.40
2019-05-10T22:21:46.331Z,28.37
2019-05-10T22:24:15.680Z,28.73
2019-05-10T22:26:45.242Z,25.67
2019-05-10T22:29:14.793Z,27.13
2019-05-10T22:31:44.262Z,27.03
2019-05-10T22:34:13.747Z,27.43
2019-05-10T22:36:43.213Z,28.60
2019-05-10T22:39:12.676Z,26.50
2019-05-10T22:41:42.287Z,29.40
2019-05-10T22:44:11.724Z,28.33
2019-05-10T22:46:41.295Z,29.33
2019-05-10T22:49:10.936Z,28.47
2019-05-10T22:51:40.358Z,30.63
2019-05-10T22:54:09.967Z,31.30
2019-05-10T22:56:39.439Z,30.40
2019-05-10T22:59:08.858Z,31.93
2019-05-10T23:01:38.263Z,33.27
2019-05-10T23:04:07.715Z,33.07
2019-05-10T23:06:37.103Z,34.17
2019-05-10T23:09:23.595Z,37.00
2019-05-10T23:11:39.827Z,34.10
2019-05-10T23:14:09.173Z,37.07
2019-05-10T23:16:38.618Z,38.13
2019-05-10T23:19:08.144Z,38.00
2019-05-10T23:21:37.459Z,38.33
2019-05-10T23:24:06.831Z,40.73
2019-05-10T23:26:36.387Z,40.37
2019-05-10T23:29:05.879Z,40.60
2019-05-10T23:31:35.697Z,40.10
2019-05-10T23:34:05.291Z,42.03
2019-05-10T23:36:34.711Z,42.57
2019-05-10T23:39:06.649Z,40.60
2019-05-10T23:41:36.100Z,41.07
2019-05-10T23:44:05.520Z,41.80
2019-05-10T23:46:34.880Z,41.17
2019-05-10T23:49:04.364Z,42.43
2019-05-10T23:51:33.640Z,42.03
2019-05-10T23:54:02.936Z,42.77
2019-05-10T23:56:32.359Z,42.53
2019-05-10T23:59:01.770Z,43.57
